Fairfield, Iowa
Current Conditions -  °F | °C
As of 4:55 PM on Saturday 25 Oct 2014 (Local Time) from KFFL Reporting Station
Clear Clear  
Wind Chill: 70°   Ceiling: Unl
Heat Index: 70°   Visibility: NA
Dew Point: 36°   Wind: 9mph
Humidity: 28%   Direction: 350°N
Pressure: 30.05"   Gusts: NA
Location:  41.01°N, 91.96°W
Report Text: KFFL 252155Z AUTO 35008KT CLR 21/02 A3005 RMK AO2
Loading
Personal Weather Stations






























Interactive Weather Map
Tropical Storm Tracking
New forecast layout! Learn more

10-Day Weather Forecast

Advertisements
Track Severe Weather on mobile